createdAt,value
2023-03-29T00:01:02.618Z,2.50
2023-03-29T00:06:03.304Z,2.85
2023-03-29T00:11:00.907Z,2.63
2023-03-29T00:15:54.305Z,2.97
2023-03-29T00:20:48.108Z,2.40
2023-03-29T00:25:46.405Z,2.70
2023-03-29T00:30:40.568Z,2.40
2023-03-29T00:35:34.595Z,2.25
2023-03-29T00:40:27.716Z,2.28
2023-03-29T00:45:26.138Z,2.17
2023-03-29T00:50:54.930Z,2.45
2023-03-29T00:55:53.076Z,2.20
2023-03-29T01:00:52.260Z,2.53
2023-03-29T01:05:48.598Z,3.10
2023-03-29T01:10:43.883Z,2.42
2023-03-29T01:15:37.296Z,2.17
2023-03-29T01:20:58.021Z,2.20
2023-03-29T01:26:14.716Z,2.65
2023-03-29T01:31:37.521Z,2.40
2023-03-29T01:36:37.705Z,2.67
2023-03-29T01:41:43.668Z,2.17
2023-03-29T01:46:46.022Z,2.78
2023-03-29T01:51:47.499Z,2.72
2023-03-29T01:56:45.238Z,2.70
2023-03-29T02:01:49.653Z,3.42
2023-03-29T02:06:42.893Z,2.88
2023-03-29T02:11:37.126Z,3.53
2023-03-29T02:16:34.880Z,2.25
2023-03-29T02:21:33.192Z,3.28
2023-03-29T02:26:29.937Z,3.22
2023-03-29T02:31:32.485Z,2.97
2023-03-29T02:36:34.715Z,2.83
2023-03-29T02:41:29.178Z,3.50
2023-03-29T02:46:21.545Z,3.83
2023-03-29T02:51:37.588Z,5.60
2023-03-29T02:56:30.952Z,3.03
2023-03-29T03:01:23.638Z,3.00
2023-03-29T03:06:16.691Z,3.28
2023-03-29T03:11:12.077Z,2.67
2023-03-29T03:16:06.651Z,2.80
2023-03-29T03:21:02.445Z,3.42
2023-03-29T03:25:55.769Z,2.95
2023-03-29T03:30:49.630Z,2.95
2023-03-29T03:35:43.276Z,2.50
2023-03-29T03:40:37.121Z,2.80
2023-03-29T03:45:31.866Z,3.03
2023-03-29T03:50:34.177Z,2.55
2023-03-29T03:55:30.752Z,2.47
2023-03-29T04:00:34.842Z,3.53
2023-03-29T04:05:51.788Z,2.13
2023-03-29T04:10:58.401Z,2.78
2023-03-29T04:16:00.950Z,2.35
2023-03-29T04:20:55.401Z,3.38
2023-03-29T04:25:54.467Z,2.40
2023-03-29T04:31:06.912Z,2.15
2023-03-29T04:36:10.589Z,2.20
2023-03-29T04:41:05.209Z,2.08
2023-03-29T04:46:10.685Z,2.53
2023-03-29T04:51:25.249Z,3.25
2023-03-29T04:56:19.856Z,3.33
2023-03-29T05:01:40.315Z,2.80
2023-03-29T05:06:34.069Z,2.10
2023-03-29T05:11:28.250Z,2.33
2023-03-29T05:16:21.096Z,2.20
2023-03-29T05:21:16.408Z,2.33
2023-03-29T05:26:14.993Z,5.78
2023-03-29T05:31:16.692Z,3.78
2023-03-29T05:36:15.952Z,3.38
2023-03-29T05:41:12.936Z,3.80
2023-03-29T05:46:41.266Z,3.90
2023-03-29T05:51:42.254Z,5.53
2023-03-29T05:56:36.195Z,4.43
2023-03-29T06:01:29.739Z,3.42
2023-03-29T06:06:32.531Z,4.25
2023-03-29T06:11:26.394Z,2.95
2023-03-29T06:16:40.161Z,3.38
2023-03-29T06:21:36.874Z,4.60
2023-03-29T06:26:31.947Z,3.08
2023-03-29T06:31:26.534Z,4.07
2023-03-29T06:36:20.721Z,3.20
2023-03-29T06:41:15.816Z,6.10
2023-03-29T06:46:27.919Z,4.15
2023-03-29T06:51:23.590Z,5.00
2023-03-29T06:56:18.081Z,5.28
2023-03-29T07:01:14.296Z,3.78
2023-03-29T07:06:21.571Z,3.30
2023-03-29T07:11:16.374Z,2.85
2023-03-29T07:16:18.939Z,3.35
2023-03-29T07:21:29.816Z,2.95
2023-03-29T07:26:28.958Z,3.58
2023-03-29T07:31:25.118Z,2.58
2023-03-29T07:36:25.363Z,2.67
2023-03-29T07:41:18.634Z,3.00
2023-03-29T07:46:14.225Z,2.40
2023-03-29T07:51:09.079Z,3.03
2023-03-29T07:56:10.404Z,2.30
2023-03-29T08:01:20.816Z,2.38
2023-03-29T08:06:32.860Z,2.72
2023-03-29T08:11:25.836Z,2.53
2023-03-29T08:16:26.398Z,2.58
2023-03-29T08:21:30.969Z,2.58
2023-03-29T08:26:24.098Z,2.97
2023-03-29T08:31:17.705Z,2.13
2023-03-29T08:36:12.723Z,1.90
2023-03-29T08:41:26.552Z,2.20
2023-03-29T08:46:42.415Z,2.10
2023-03-29T08:52:03.045Z,2.60
2023-03-29T08:57:04.275Z,2.90
2023-03-29T09:02:03.319Z,2.33
2023-03-29T09:06:58.374Z,2.78
2023-03-29T09:12:07.700Z,1.98
2023-03-29T09:17:21.672Z,1.90
2023-03-29T09:22:30.033Z,1.60
2023-03-29T09:27:33.141Z,3.60
2023-03-29T09:33:14.533Z,1.63
2023-03-29T09:38:17.933Z,2.47
2023-03-29T09:43:14.584Z,1.83
2023-03-29T09:48:18.662Z,2.00
2023-03-29T09:53:17.484Z,1.95
2023-03-29T09:58:26.452Z,2.13
2023-03-29T10:03:22.690Z,1.90
2023-03-29T10:08:30.449Z,1.90
2023-03-29T10:13:33.660Z,2.20
2023-03-29T10:18:33.712Z,2.00
2023-03-29T10:23:32.801Z,2.20
2023-03-29T10:28:26.353Z,2.25
2023-03-29T10:33:21.217Z,2.30
2023-03-29T10:38:16.996Z,2.58
2023-03-29T10:43:23.199Z,1.80
2023-03-29T10:48:18.155Z,2.03
2023-03-29T10:53:47.948Z,2.20
2023-03-29T10:59:20.647Z,3.33
2023-03-29T11:04:34.695Z,1.85
2023-03-29T11:10:09.297Z,2.00
2023-03-29T11:15:11.910Z,2.13
2023-03-29T11:20:29.308Z,2.20
2023-03-29T11:25:32.618Z,1.85
2023-03-29T11:30:33.100Z,2.78
2023-03-29T11:35:44.492Z,2.60
2023-03-29T11:41:11.673Z,2.10
2023-03-29T11:46:34.251Z,2.38
2023-03-29T11:51:34.435Z,1.98
2023-03-29T11:56:41.192Z,2.10
2023-03-29T12:01:49.855Z,2.63
2023-03-29T12:06:58.772Z,2.20
2023-03-29T12:11:56.034Z,2.17
2023-03-29T12:17:03.391Z,2.97
2023-03-29T12:21:57.516Z,2.60
2023-03-29T12:27:13.299Z,2.50
2023-03-29T12:32:34.288Z,2.35
2023-03-29T12:37:47.960Z,2.58
2023-03-29T12:43:09.373Z,2.70
2023-03-29T12:53:38.165Z,3.28
2023-03-29T12:58:40.408Z,2.47
2023-03-29T13:03:43.527Z,2.70
2023-03-29T13:08:38.003Z,4.40
2023-03-29T13:13:34.228Z,2.85
2023-03-29T13:18:42.024Z,3.53
2023-03-29T13:23:55.213Z,3.15
2023-03-29T13:29:03.718Z,3.20
2023-03-29T13:34:20.516Z,2.70
2023-03-29T13:39:25.340Z,2.47
2023-03-29T13:44:46.061Z,3.10
2023-03-29T13:49:39.492Z,3.03
2023-03-29T13:54:46.309Z,3.05
2023-03-29T14:00:05.586Z,3.35
2023-03-29T14:05:06.765Z,3.28
2023-03-29T14:10:01.395Z,3.17
2023-03-29T14:14:59.299Z,4.38
2023-03-29T14:19:53.381Z,3.85
2023-03-29T14:25:01.004Z,4.45
2023-03-29T14:29:54.918Z,4.67
2023-03-29T14:34:50.658Z,5.13
2023-03-29T14:39:44.691Z,4.15
2023-03-29T14:44:38.158Z,4.38
2023-03-29T14:49:30.982Z,4.68
2023-03-29T14:54:29.057Z,4.40
2023-03-29T14:59:27.659Z,4.00
2023-03-29T15:04:20.478Z,4.97
2023-03-29T15:09:28.982Z,4.05
2023-03-29T15:14:23.514Z,4.00
2023-03-29T15:19:19.764Z,4.10
2023-03-29T15:24:33.103Z,3.40
2023-03-29T15:29:35.496Z,5.20
2023-03-29T15:34:31.734Z,3.95
2023-03-29T15:39:25.557Z,4.38
2023-03-29T15:44:22.924Z,4.10
2023-03-29T15:49:16.682Z,4.50
2023-03-29T15:54:10.960Z,4.45
2023-03-29T15:59:07.929Z,4.50
2023-03-29T16:04:03.465Z,4.55
2023-03-29T16:08:57.941Z,4.32
2023-03-29T16:13:52.326Z,4.45
2023-03-29T16:18:46.097Z,3.97
2023-03-29T16:23:39.388Z,4.68
2023-03-29T16:28:33.497Z,8.27
2023-03-29T16:33:27.135Z,7.75
2023-03-29T16:38:22.549Z,7.45
2023-03-29T16:43:20.051Z,8.07
2023-03-29T16:48:20.253Z,7.72
2023-03-29T16:53:14.759Z,8.32
2023-03-29T16:58:08.123Z,7.43
2023-03-29T17:03:02.313Z,6.72
2023-03-29T17:07:56.453Z,7.63
2023-03-29T17:12:51.155Z,9.38
2023-03-29T17:17:44.455Z,7.75
2023-03-29T17:22:38.790Z,8.20
2023-03-29T17:27:31.849Z,7.82
2023-03-29T17:32:25.222Z,8.95
2023-03-29T17:37:18.037Z,10.88
2023-03-29T17:42:11.500Z,9.10
2023-03-29T17:47:04.981Z,9.45
2023-03-29T17:51:58.586Z,9.80
2023-03-29T17:56:51.843Z,15.43
2023-03-29T18:01:45.727Z,20.08
2023-03-29T18:06:39.380Z,17.80
2023-03-29T18:11:34.055Z,18.10
2023-03-29T18:16:27.949Z,18.05
2023-03-29T18:21:22.560Z,18.55
2023-03-29T18:26:17.211Z,19.13
2023-03-29T18:31:10.759Z,14.52
2023-03-29T18:36:09.151Z,12.38
2023-03-29T18:41:04.701Z,12.93
2023-03-29T18:45:58.160Z,15.45
2023-03-29T18:50:53.009Z,15.82
2023-03-29T18:55:46.231Z,13.73
2023-03-29T19:00:39.444Z,13.85
2023-03-29T19:05:33.138Z,13.95
2023-03-29T19:10:26.112Z,12.43
2023-03-29T19:15:19.769Z,12.40
2023-03-29T19:20:15.311Z,12.95
2023-03-29T19:25:11.467Z,14.07
2023-03-29T19:30:06.888Z,16.48
2023-03-29T19:35:00.888Z,12.18
2023-03-29T19:39:56.432Z,13.50
2023-03-29T19:44:48.617Z,18.92
2023-03-29T19:49:42.541Z,21.48
2023-03-29T19:54:36.592Z,14.93
2023-03-29T19:59:31.567Z,13.35
2023-03-29T20:04:24.725Z,14.25
2023-03-29T20:09:19.428Z,14.27
2023-03-29T20:14:12.838Z,14.85
2023-03-29T20:19:08.949Z,14.63
2023-03-29T20:24:02.786Z,13.63
2023-03-29T20:28:56.664Z,14.20
2023-03-29T20:33:49.957Z,12.20
2023-03-29T20:38:43.516Z,10.60
2023-03-29T20:43:38.598Z,10.40
2023-03-29T20:48:31.592Z,11.80
2023-03-29T20:53:25.473Z,11.63
2023-03-29T20:58:18.805Z,12.57
2023-03-29T21:03:11.472Z,11.40
2023-03-29T21:08:04.513Z,13.13
2023-03-29T21:13:02.563Z,20.55
2023-03-29T21:17:56.660Z,10.43
2023-03-29T21:22:49.483Z,10.35
2023-03-29T21:27:46.987Z,8.90
2023-03-29T21:32:39.274Z,9.07
2023-03-29T21:37:32.076Z,9.05
2023-03-29T21:42:26.400Z,10.23
2023-03-29T21:47:19.682Z,11.23
2023-03-29T21:52:12.314Z,10.27
2023-03-29T21:57:08.029Z,9.95
2023-03-29T22:02:01.051Z,10.18
2023-03-29T22:06:54.486Z,11.30
2023-03-29T22:11:48.930Z,10.05
2023-03-29T22:16:42.565Z,9.35
2023-03-29T22:21:38.321Z,8.75
2023-03-29T22:26:32.633Z,8.07
2023-03-29T22:31:28.028Z,9.15
2023-03-29T22:36:28.944Z,8.50
2023-03-29T22:41:26.121Z,6.68
2023-03-29T22:46:20.199Z,7.45
2023-03-29T22:51:14.455Z,6.88
2023-03-29T22:56:09.654Z,7.53
2023-03-29T23:01:03.900Z,7.50
2023-03-29T23:05:58.154Z,7.07
2023-03-29T23:10:52.348Z,7.65
2023-03-29T23:15:50.804Z,6.57
2023-03-29T23:20:45.267Z,6.38
2023-03-29T23:25:38.562Z,6.82
2023-03-29T23:30:32.344Z,5.82
2023-03-29T23:35:25.386Z,6.00
2023-03-29T23:40:18.632Z,7.40
2023-03-29T23:45:17.120Z,7.25
2023-03-29T23:50:13.387Z,7.03
2023-03-29T23:55:09.047Z,7.43
